sensor_id;sensor_type;location;lat;lon;timestamp;pressure;altitude;pressure_sealevel;temperature;humidity
50672;BME280;46021;55.882;37.654;2022-10-23T00:00:17;99605.19;;;4.76;71.09
50672;BME280;46021;55.882;37.654;2022-10-23T00:02:50;99617.25;;;4.77;70.70
50672;BME280;46021;55.882;37.654;2022-10-23T00:05:18;99605.19;;;4.76;71.27
50672;BME280;46021;55.882;37.654;2022-10-23T00:07:49;99600.94;;;4.75;70.18
50672;BME280;46021;55.882;37.654;2022-10-23T00:10:16;99588.94;;;4.66;71.14
50672;BME280;46021;55.882;37.654;2022-10-23T00:12:44;99595.78;;;4.70;70.46
50672;BME280;46021;55.882;37.654;2022-10-23T00:15:12;99596.63;;;4.71;70.94
50672;BME280;46021;55.882;37.654;2022-10-23T00:17:40;99588.94;;;4.67;69.88
50672;BME280;46021;55.882;37.654;2022-10-23T00:20:08;99589.78;;;4.69;70.98
50672;BME280;46021;55.882;37.654;2022-10-23T00:22:36;99578.59;;;4.69;70.03
50672;BME280;46021;55.882;37.654;2022-10-23T00:25:04;99579.38;;;4.74;70.89
50672;BME280;46021;55.882;37.654;2022-10-23T00:27:32;99577.72;;;4.72;70.36
50672;BME280;46021;55.882;37.654;2022-10-23T00:29:59;99577.72;;;4.72;70.56
50672;BME280;46021;55.882;37.654;2022-10-23T00:32:27;99569.22;;;4.60;70.54
50672;BME280;46021;55.882;37.654;2022-10-23T00:34:56;99569.19;;;4.63;70.37
50672;BME280;46021;55.882;37.654;2022-10-23T00:37:23;99558.03;;;4.61;70.41
50672;BME280;46021;55.882;37.654;2022-10-23T00:39:50;99550.28;;;4.58;70.88
50672;BME280;46021;55.882;37.654;2022-10-23T00:42:18;99552.81;;;4.66;71.23
50672;BME280;46021;55.882;37.654;2022-10-23T00:45:13;99563.13;;;4.66;71.07
50672;BME280;46021;55.882;37.654;2022-10-23T00:47:41;99559.72;;;4.61;71.41
50672;BME280;46021;55.882;37.654;2022-10-23T00:50:10;99553.72;;;4.60;70.14
50672;BME280;46021;55.882;37.654;2022-10-23T00:52:41;99551.13;;;4.62;70.88
50672;BME280;46021;55.882;37.654;2022-10-23T00:55:11;99546.81;;;4.59;70.45
50672;BME280;46021;55.882;37.654;2022-10-23T00:57:41;99541.72;;;4.56;71.43
50672;BME280;46021;55.882;37.654;2022-10-23T01:00:13;99545.13;;;4.61;71.61
50672;BME280;46021;55.882;37.654;2022-10-23T01:02:41;99533.91;;;4.61;71.45
50672;BME280;46021;55.882;37.654;2022-10-23T01:05:09;99535.66;;;4.57;70.92
50672;BME280;46021;55.882;37.654;2022-10-23T01:07:44;99537.38;;;4.58;71.05
50672;BME280;46021;55.882;37.654;2022-10-23T01:10:20;99536.56;;;4.56;71.15
50672;BME280;46021;55.882;37.654;2022-10-23T01:12:54;99533.09;;;4.57;71.55
50672;BME280;46021;55.882;37.654;2022-10-23T01:15:28;99528.81;;;4.55;71.16
50672;BME280;46021;55.882;37.654;2022-10-23T01:18:03;99536.63;;;4.50;72.56
50672;BME280;46021;55.882;37.654;2022-10-23T01:20:40;99517.81;;;4.36;72.59
50672;BME280;46021;55.882;37.654;2022-10-23T01:23:21;99522.16;;;4.29;72.89
50672;BME280;46021;55.882;37.654;2022-10-23T01:26:01;99528.25;;;4.22;73.14
50672;BME280;46021;55.882;37.654;2022-10-23T01:28:41;99530.00;;;4.18;72.33
50672;BME280;46021;55.882;37.654;2022-10-23T01:31:13;99518.09;;;4.05;73.56
50672;BME280;46021;55.882;37.654;2022-10-23T01:33:45;99522.34;;;4.10;72.75
50672;BME280;46021;55.882;37.654;2022-10-23T01:36:22;99513.78;;;4.02;73.82
50672;BME280;46021;55.882;37.654;2022-10-23T01:38:57;99522.34;;;4.07;73.34
50672;BME280;46021;55.882;37.654;2022-10-23T01:41:29;99519.78;;;4.06;73.07
50672;BME280;46021;55.882;37.654;2022-10-23T01:44:03;99518.09;;;4.03;73.49
50672;BME280;46021;55.882;37.654;2022-10-23T01:46:34;99506.13;;;3.93;74.69
50672;BME280;46021;55.882;37.654;2022-10-23T01:49:07;99509.59;;;3.90;74.78
50672;BME280;46021;55.882;37.654;2022-10-23T01:51:37;99505.31;;;3.88;74.50
50672;BME280;46021;55.882;37.654;2022-10-23T01:54:09;99507.91;;;3.86;75.13
50672;BME280;46021;55.882;37.654;2022-10-23T01:56:43;99510.50;;;3.85;73.92
50672;BME280;46021;55.882;37.654;2022-10-23T01:59:15;99503.66;;;3.81;74.76
50672;BME280;46021;55.882;37.654;2022-10-23T02:01:47;99506.25;;;3.76;73.80
50672;BME280;46021;55.882;37.654;2022-10-23T02:04:20;99500.28;;;3.71;73.88
50672;BME280;46021;55.882;37.654;2022-10-23T02:06:49;99498.59;;;3.65;74.71
50672;BME280;46021;55.882;37.654;2022-10-23T02:09:16;99497.81;;;3.56;73.65
50672;BME280;46021;55.882;37.654;2022-10-23T02:11:51;99495.28;;;3.48;74.69
50672;BME280;46021;55.882;37.654;2022-10-23T02:14:27;99493.63;;;3.36;74.86
50672;BME280;46021;55.882;37.654;2022-10-23T02:17:06;99497.97;;;3.28;75.30
50672;BME280;46021;55.882;37.654;2022-10-23T02:19:43;99492.00;;;3.20;75.25
50672;BME280;46021;55.882;37.654;2022-10-23T02:22:17;99498.00;;;3.16;74.89
50672;BME280;46021;55.882;37.654;2022-10-23T02:24:50;99493.78;;;3.08;75.65
50672;BME280;46021;55.882;37.654;2022-10-23T02:27:22;99492.09;;;3.01;75.19
50672;BME280;46021;55.882;37.654;2022-10-23T02:30:01;99494.66;;;3.01;75.49
50672;BME280;46021;55.882;37.654;2022-10-23T02:32:31;99486.94;;;2.97;76.25
50672;BME280;46021;55.882;37.654;2022-10-23T02:35:00;99485.25;;;2.91;75.45
50672;BME280;46021;55.882;37.654;2022-10-23T02:37:29;99495.56;;;2.89;76.17
50672;BME280;46021;55.882;37.654;2022-10-23T02:39:56;99489.56;;;2.84;76.37
50672;BME280;46021;55.882;37.654;2022-10-23T02:42:27;99496.44;;;2.84;76.51
50672;BME280;46021;55.882;37.654;2022-10-23T02:45:02;99494.72;;;2.83;76.18
50672;BME280;46021;55.882;37.654;2022-10-23T02:47:43;99492.16;;;2.81;76.45
50672;BME280;46021;55.882;37.654;2022-10-23T02:50:19;99491.28;;;2.79;76.09
50672;BME280;46021;55.882;37.654;2022-10-23T02:52:57;99489.59;;;2.75;75.72
50672;BME280;46021;55.882;37.654;2022-10-23T02:55:33;99482.75;;;2.69;75.73
50672;BME280;46021;55.882;37.654;2022-10-23T02:58:07;99486.22;;;2.65;76.44
50672;BME280;46021;55.882;37.654;2022-10-23T03:00:46;99480.22;;;2.63;76.14
50672;BME280;46021;55.882;37.654;2022-10-23T03:03:19;99481.94;;;2.61;76.42
50672;BME280;46021;55.882;37.654;2022-10-23T03:05:48;99478.50;;;2.59;76.43
50672;BME280;46021;55.882;37.654;2022-10-23T03:08:15;99469.94;;;2.54;76.64
50672;BME280;46021;55.882;37.654;2022-10-23T03:10:42;99469.09;;;2.53;76.13
50672;BME280;46021;55.882;37.654;2022-10-23T03:13:10;99462.22;;;2.51;76.37
50672;BME280;46021;55.882;37.654;2022-10-23T03:15:42;99451.94;;;2.48;76.11
50672;BME280;46021;55.882;37.654;2022-10-23T03:18:14;99457.09;;;2.45;76.68
50672;BME280;46021;55.882;37.654;2022-10-23T03:20:45;99462.25;;;2.45;76.74
50672;BME280;46021;55.882;37.654;2022-10-23T03:23:13;99453.66;;;2.40;76.03
50672;BME280;46021;55.882;37.654;2022-10-23T03:25:41;99453.69;;;2.33;76.21
50672;BME280;46021;55.882;37.654;2022-10-23T03:28:12;99447.69;;;2.28;76.88
50672;BME280;46021;55.882;37.654;2022-10-23T03:30:39;99440.88;;;2.18;76.45
50672;BME280;46021;55.882;37.654;2022-10-23T03:33:08;99440.84;;;2.13;77.04
50672;BME280;46021;55.882;37.654;2022-10-23T03:35:35;99444.31;;;2.14;77.69
50672;BME280;46021;55.882;37.654;2022-10-23T03:38:02;99448.59;;;2.12;77.93
50672;BME280;46021;55.882;37.654;2022-10-23T03:40:29;99444.31;;;2.14;77.64
50672;BME280;46021;55.882;37.654;2022-10-23T03:42:56;99442.59;;;2.14;78.28
50672;BME280;46021;55.882;37.654;2022-10-23T03:45:24;99440.84;;;2.13;78.06
50672;BME280;46021;55.882;37.654;2022-10-23T03:47:51;99444.31;;;2.12;78.52
50672;BME280;46021;55.882;37.654;2022-10-23T03:50:20;99440.00;;;2.13;78.44
50672;BME280;46021;55.882;37.654;2022-10-23T03:52:47;99436.59;;;2.12;77.90
50672;BME280;46021;55.882;37.654;2022-10-23T03:55:15;99436.59;;;2.08;78.34
50672;BME280;46021;55.882;37.654;2022-10-23T03:57:42;99440.88;;;2.10;77.78
50672;BME280;46021;55.882;37.654;2022-10-23T04:00:10;99434.00;;;2.11;78.07
50672;BME280;46021;55.882;37.654;2022-10-23T04:02:43;99429.75;;;2.08;78.83
50672;BME280;46021;55.882;37.654;2022-10-23T04:05:11;99429.75;;;2.07;77.81
50672;BME280;46021;55.882;37.654;2022-10-23T04:07:44;99428.88;;;2.03;78.46
50672;BME280;46021;55.882;37.654;2022-10-23T04:10:11;99428.88;;;2.03;78.47
50672;BME280;46021;55.882;37.654;2022-10-23T04:12:38;99425.47;;;2.01;78.86
50672;BME280;46021;55.882;37.654;2022-10-23T04:15:06;99423.75;;;2.00;78.71
50672;BME280;46021;55.882;37.654;2022-10-23T04:17:33;99427.19;;;1.99;78.60
50672;BME280;46021;55.882;37.654;2022-10-23T04:20:00;99421.19;;;1.95;78.74
50672;BME280;46021;55.882;37.654;2022-10-23T04:22:28;99410.91;;;1.88;78.42
50672;BME280;46021;55.882;37.654;2022-10-23T04:24:57;99418.63;;;1.94;78.28
50672;BME280;46021;55.882;37.654;2022-10-23T04:27:24;99424.63;;;2.01;78.75
50672;BME280;46021;55.882;37.654;2022-10-23T04:29:51;99425.47;;;2.01;79.26
50672;BME280;46021;55.882;37.654;2022-10-23T04:32:18;99422.91;;;2.03;78.67
50672;BME280;46021;55.882;37.654;2022-10-23T04:34:46;99426.28;;;2.08;78.75
50672;BME280;46021;55.882;37.654;2022-10-23T04:37:13;99411.72;;;2.11;78.66
50672;BME280;46021;55.882;37.654;2022-10-23T04:39:40;99418.56;;;2.17;78.66
50672;BME280;46021;55.882;37.654;2022-10-23T04:42:14;99418.56;;;2.31;78.32
50672;BME280;46021;55.882;37.654;2022-10-23T04:44:41;99416.81;;;2.39;78.77
50672;BME280;46021;55.882;37.654;2022-10-23T04:47:08;99411.66;;;2.39;79.00
50672;BME280;46021;55.882;37.654;2022-10-23T04:49:45;99403.91;;;2.44;78.29
50672;BME280;46021;55.882;37.654;2022-10-23T04:52:21;99398.78;;;2.45;78.35
50672;BME280;46021;55.882;37.654;2022-10-23T04:55:23;99403.06;;;2.48;78.45
50672;BME280;46021;55.882;37.654;2022-10-23T04:58:06;99390.22;;;2.43;78.68
50672;BME280;46021;55.882;37.654;2022-10-23T05:00:34;99403.91;;;2.50;78.75
50672;BME280;46021;55.882;37.654;2022-10-23T05:03:01;99396.19;;;2.48;78.62
50672;BME280;46021;55.882;37.654;2022-10-23T05:05:34;99397.06;;;2.50;78.20
50672;BME280;46021;55.882;37.654;2022-10-23T05:08:07;99387.63;;;2.46;78.45
50672;BME280;46021;55.882;37.654;2022-10-23T05:10:57;99394.47;;;2.52;79.36
50672;BME280;46021;55.882;37.654;2022-10-23T05:13:26;99390.19;;;2.54;78.71
50672;BME280;46021;55.882;37.654;2022-10-23T05:15:53;99385.03;;;2.51;78.90
50672;BME280;46021;55.882;37.654;2022-10-23T05:18:23;99371.31;;;2.49;78.61
50672;BME280;46021;55.882;37.654;2022-10-23T05:20:55;99382.44;;;2.60;78.67
50672;BME280;46021;55.882;37.654;2022-10-23T05:23:24;99391.84;;;2.64;78.89
50672;BME280;46021;55.882;37.654;2022-10-23T05:25:59;99401.25;;;2.73;78.68
50672;BME280;46021;55.882;37.654;2022-10-23T05:28:30;99391.75;;;2.83;78.58
50672;BME280;46021;55.882;37.654;2022-10-23T05:30:59;99402.00;;;2.90;79.22
50672;BME280;46021;55.882;37.654;2022-10-23T05:33:28;99401.97;;;3.01;78.80
50672;BME280;46021;55.882;37.654;2022-10-23T05:35:55;99396.75;;;3.10;78.27
50672;BME280;46021;55.882;37.654;2022-10-23T05:38:24;99400.13;;;3.16;77.90
50672;BME280;46021;55.882;37.654;2022-10-23T05:40:52;99390.69;;;3.19;77.72
50672;BME280;46021;55.882;37.654;2022-10-23T05:43:21;99387.25;;;3.23;77.69
50672;BME280;46021;55.882;37.654;2022-10-23T05:46:27;99398.34;;;3.27;77.35
50672;BME280;46021;55.882;37.654;2022-10-23T05:49:23;99389.75;;;3.31;77.56
50672;BME280;46021;55.882;37.654;2022-10-23T05:52:11;99389.75;;;3.29;77.84
50672;BME280;46021;55.882;37.654;2022-10-23T05:54:59;99394.88;;;3.37;78.28
50672;BME280;46021;55.882;37.654;2022-10-23T05:57:49;99381.09;;;3.41;76.99
50672;BME280;46021;55.882;37.654;2022-10-23T06:00:22;99386.22;;;3.44;77.80
50672;BME280;46021;55.882;37.654;2022-10-23T06:03:03;99381.94;;;3.43;77.70
50672;BME280;46021;55.882;37.654;2022-10-23T06:05:38;99369.03;;;3.46;77.48
50672;BME280;46021;55.882;37.654;2022-10-23T06:08:28;99380.94;;;3.60;77.99
50672;BME280;46021;55.882;37.654;2022-10-23T06:10:55;99372.25;;;3.68;76.90
50672;BME280;46021;55.882;37.654;2022-10-23T06:13:22;99370.50;;;3.75;76.74
50672;BME280;46021;55.882;37.654;2022-10-23T06:15:49;99363.50;;;3.88;76.87
50672;BME280;46021;55.882;37.654;2022-10-23T06:18:21;99365.94;;;3.99;77.53
50672;BME280;46021;55.882;37.654;2022-10-23T06:20:55;99355.59;;;4.06;76.63
50672;BME280;46021;55.882;37.654;2022-10-23T06:23:24;99345.19;;;4.14;76.36
50672;BME280;46021;55.882;37.654;2022-10-23T06:26:18;99338.19;;;4.22;76.63
50672;BME280;46021;55.882;37.654;2022-10-23T06:29:14;99341.63;;;4.23;76.30
50672;BME280;46021;55.882;37.654;2022-10-23T06:31:42;99333.84;;;4.27;75.83
50672;BME280;46021;55.882;37.654;2022-10-23T06:34:12;99333.78;;;4.32;76.49
50672;BME280;46021;55.882;37.654;2022-10-23T06:36:40;99326.88;;;4.33;75.12
50672;BME280;46021;55.882;37.654;2022-10-23T06:39:33;99323.41;;;4.37;74.85
50672;BME280;46021;55.882;37.654;2022-10-23T06:42:28;99321.63;;;4.42;75.18
50672;BME280;46021;55.882;37.654;2022-10-23T06:44:56;99320.78;;;4.40;74.99
50672;BME280;46021;55.882;37.654;2022-10-23T06:47:52;99317.25;;;4.48;75.51
50672;BME280;46021;55.882;37.654;2022-10-23T06:50:39;99322.38;;;4.50;75.27
50672;BME280;46021;55.882;37.654;2022-10-23T06:53:11;99311.16;;;4.51;75.06
50672;BME280;46021;55.882;37.654;2022-10-23T06:55:45;99308.47;;;4.60;75.33
50672;BME280;46021;55.882;37.654;2022-10-23T06:58:12;99317.78;;;4.71;74.56
50672;BME280;46021;55.882;37.654;2022-10-23T07:01:00;99309.06;;;4.81;74.33
50672;BME280;46021;55.882;37.654;2022-10-23T07:03:27;99298.72;;;4.81;74.40
50672;BME280;46021;55.882;37.654;2022-10-23T07:05:58;99302.25;;;4.74;73.61
50672;BME280;46021;55.882;37.654;2022-10-23T07:08:26;99300.47;;;4.79;74.27
50672;BME280;46021;55.882;37.654;2022-10-23T07:10:55;99298.63;;;4.87;73.99
50672;BME280;46021;55.882;37.654;2022-10-23T07:13:22;99295.81;;;5.02;74.72
50672;BME280;46021;55.882;37.654;2022-10-23T07:16:17;99296.41;;;5.20;73.89
50672;BME280;46021;55.882;37.654;2022-10-23T07:18:45;99292.81;;;5.28;73.95
50672;BME280;46021;55.882;37.654;2022-10-23T07:21:37;99295.38;;;5.28;73.40
50672;BME280;46021;55.882;37.654;2022-10-23T07:24:19;99285.91;;;5.29;73.09
50672;BME280;46021;55.882;37.654;2022-10-23T07:26:46;99286.69;;;5.34;73.07
50672;BME280;46021;55.882;37.654;2022-10-23T07:29:14;99283.13;;;5.41;73.16
50672;BME280;46021;55.882;37.654;2022-10-23T07:31:42;99280.53;;;5.41;73.00
50672;BME280;46021;55.882;37.654;2022-10-23T07:34:35;99284.66;;;5.52;72.78
50672;BME280;46021;55.882;37.654;2022-10-23T07:37:24;99276.03;;;5.53;72.22
50672;BME280;46021;55.882;37.654;2022-10-23T07:39:51;99277.84;;;5.46;71.99
50672;BME280;46021;55.882;37.654;2022-10-23T07:42:18;99283.75;;;5.54;72.02
50672;BME280;46021;55.882;37.654;2022-10-23T07:44:47;99277.78;;;5.51;72.25
50672;BME280;46021;55.882;37.654;2022-10-23T07:47:14;99274.53;;;5.41;71.55
50672;BME280;46021;55.882;37.654;2022-10-23T07:49:46;99277.13;;;5.39;72.36
50672;BME280;46021;55.882;37.654;2022-10-23T07:52:13;99271.84;;;5.45;72.83
50672;BME280;46021;55.882;37.654;2022-10-23T07:55:07;99270.91;;;5.48;72.56
50672;BME280;46021;55.882;37.654;2022-10-23T07:57:38;99271.56;;;5.61;72.27
50672;BME280;46021;55.882;37.654;2022-10-23T08:00:11;99256.16;;;5.55;71.55
50672;BME280;46021;55.882;37.654;2022-10-23T08:02:51;99261.22;;;5.61;72.21
50672;BME280;46021;55.882;37.654;2022-10-23T08:05:19;99256.69;;;5.72;71.86
50672;BME280;46021;55.882;37.654;2022-10-23T08:07:53;99259.97;;;5.82;72.09
50672;BME280;46021;55.882;37.654;2022-10-23T08:10:22;99263.34;;;5.85;71.58
50672;BME280;46021;55.882;37.654;2022-10-23T08:12:50;99261.00;;;5.73;71.16
50672;BME280;46021;55.882;37.654;2022-10-23T08:15:20;99265.41;;;5.68;71.63
50672;BME280;46021;55.882;37.654;2022-10-23T08:17:56;99255.38;;;5.51;71.63
50672;BME280;46021;55.882;37.654;2022-10-23T08:20:40;99245.06;;;5.48;71.65
50672;BME280;46021;55.882;37.654;2022-10-23T08:23:11;99258.97;;;5.42;71.09
50672;BME280;46021;55.882;37.654;2022-10-23T08:25:47;99260.66;;;5.45;72.31
50672;BME280;46021;55.882;37.654;2022-10-23T08:28:16;99265.88;;;5.42;72.35
50672;BME280;46021;55.882;37.654;2022-10-23T08:30:53;99264.25;;;5.36;72.07
50672;BME280;46021;55.882;37.654;2022-10-23T08:33:22;99261.63;;;5.39;71.75
50672;BME280;46021;55.882;37.654;2022-10-23T08:35:50;99257.28;;;5.41;72.11
50672;BME280;46021;55.882;37.654;2022-10-23T08:38:25;99256.50;;;5.36;72.50
50672;BME280;46021;55.882;37.654;2022-10-23T08:40:54;99256.28;;;5.49;72.14
50672;BME280;46021;55.882;37.654;2022-10-23T08:43:46;99256.88;;;5.63;72.88
50672;BME280;46021;55.882;37.654;2022-10-23T08:46:33;99248.28;;;5.61;72.28
50672;BME280;46021;55.882;37.654;2022-10-23T08:52:14;99243.84;;;5.69;72.01
50672;BME280;46021;55.882;37.654;2022-10-23T08:54:52;99247.25;;;5.71;72.20
50672;BME280;46021;55.882;37.654;2022-10-23T08:57:23;99243.78;;;5.72;71.86
50672;BME280;46021;55.882;37.654;2022-10-23T08:59:59;99236.13;;;5.68;71.70
50672;BME280;46021;55.882;37.654;2022-10-23T09:02:32;99230.19;;;5.61;72.02
50672;BME280;46021;55.882;37.654;2022-10-23T09:05:01;99227.72;;;5.55;72.33
50672;BME280;46021;55.882;37.654;2022-10-23T09:07:37;99221.91;;;5.43;71.78
50672;BME280;46021;55.882;37.654;2022-10-23T09:10:33;99233.22;;;5.38;72.53
50672;BME280;46021;55.882;37.654;2022-10-23T09:13:36;99236.72;;;5.34;72.78
50672;BME280;46021;55.882;37.654;2022-10-23T09:16:16;99226.41;;;5.34;72.90
50672;BME280;46021;55.882;37.654;2022-10-23T09:18:47;99211.72;;;5.36;73.57
50672;BME280;46021;55.882;37.654;2022-10-23T09:21:15;99224.38;;;5.48;73.13
50672;BME280;46021;55.882;37.654;2022-10-23T09:23:43;99212.09;;;5.61;73.43
50672;BME280;46021;55.882;37.654;2022-10-23T09:26:13;99210.97;;;5.74;72.71
50672;BME280;46021;55.882;37.654;2022-10-23T09:28:45;99203.94;;;5.82;72.74
50672;BME280;46021;55.882;37.654;2022-10-23T09:31:15;99204.63;;;5.91;72.52
50672;BME280;46021;55.882;37.654;2022-10-23T09:33:53;99178.97;;;5.80;72.51
50672;BME280;46021;55.882;37.654;2022-10-23T09:36:21;99192.50;;;5.93;72.16
50672;BME280;46021;55.882;37.654;2022-10-23T09:38:53;99197.03;;;5.81;71.66
50672;BME280;46021;55.882;37.654;2022-10-23T09:41:23;99183.53;;;5.67;72.17
50672;BME280;46021;55.882;37.654;2022-10-23T09:44:05;99187.97;;;5.62;72.54
50672;BME280;46021;55.882;37.654;2022-10-23T09:46:39;99193.16;;;5.60;72.52
50672;BME280;46021;55.882;37.654;2022-10-23T09:49:15;99191.53;;;5.55;72.36
50672;BME280;46021;55.882;37.654;2022-10-23T09:51:53;99184.78;;;5.47;72.45
50672;BME280;46021;55.882;37.654;2022-10-23T09:54:22;99183.03;;;5.48;72.08
50672;BME280;46021;55.882;37.654;2022-10-23T09:56:50;99179.69;;;5.44;73.31
50672;BME280;46021;55.882;37.654;2022-10-23T09:59:24;99184.75;;;5.49;73.15
50672;BME280;46021;55.882;37.654;2022-10-23T10:01:55;99176.97;;;5.51;73.13
50672;BME280;46021;55.882;37.654;2022-10-23T10:04:45;99162.28;;;5.53;72.94
50672;BME280;46021;55.882;37.654;2022-10-23T10:07:18;99177.88;;;5.48;73.02
50672;BME280;46021;55.882;37.654;2022-10-23T10:09:45;99169.38;;;5.43;73.11
50672;BME280;46021;55.882;37.654;2022-10-23T10:12:21;99165.38;;;5.25;73.26
50672;BME280;46021;55.882;37.654;2022-10-23T10:15:02;99163.84;;;5.16;73.52
50672;BME280;46021;55.882;37.654;2022-10-23T10:17:36;99162.13;;;5.14;73.56
50672;BME280;46021;55.882;37.654;2022-10-23T10:20:37;99166.41;;;5.16;74.09
50672;BME280;46021;55.882;37.654;2022-10-23T10:23:18;99163.94;;;5.10;74.53
50672;BME280;46021;55.882;37.654;2022-10-23T10:25:53;99160.44;;;5.13;74.06
50672;BME280;46021;55.882;37.654;2022-10-23T10:28:43;99151.94;;;5.07;74.77
50672;BME280;46021;55.882;37.654;2022-10-23T10:31:21;99152.91;;;5.00;74.68
50672;BME280;46021;55.882;37.654;2022-10-23T10:33:58;99152.88;;;5.02;75.16
50672;BME280;46021;55.882;37.654;2022-10-23T10:36:40;99145.13;;;5.03;74.83
50672;BME280;46021;55.882;37.654;2022-10-23T10:39:16;99145.97;;;5.02;74.66
50672;BME280;46021;55.882;37.654;2022-10-23T10:41:53;99143.34;;;5.05;75.25
50672;BME280;46021;55.882;37.654;2022-10-23T10:44:56;99132.13;;;5.06;75.58
50672;BME280;46021;55.882;37.654;2022-10-23T10:47:35;99138.91;;;5.12;74.78
50672;BME280;46021;55.882;37.654;2022-10-23T10:50:16;99125.16;;;5.12;75.26
50672;BME280;46021;55.882;37.654;2022-10-23T10:53:11;99126.03;;;5.11;75.26
50672;BME280;46021;55.882;37.654;2022-10-23T10:55:43;99123.47;;;5.11;75.15
50672;BME280;46021;55.882;37.654;2022-10-23T10:58:15;99114.84;;;5.10;75.64
50672;BME280;46021;55.882;37.654;2022-10-23T11:00:46;99114.03;;;5.06;74.99
50672;BME280;46021;55.882;37.654;2022-10-23T11:03:27;99106.38;;;5.03;75.86
50672;BME280;46021;55.882;37.654;2022-10-23T11:05:57;99093.63;;;4.94;75.70
50672;BME280;46021;55.882;37.654;2022-10-23T11:08:32;99109.00;;;5.00;75.20
50672;BME280;46021;55.882;37.654;2022-10-23T11:11:04;99097.16;;;4.90;75.65
50672;BME280;46021;55.882;37.654;2022-10-23T11:13:35;99103.00;;;4.98;76.33
50672;BME280;46021;55.882;37.654;2022-10-23T11:16:08;99103.84;;;5.00;76.23
50672;BME280;46021;55.882;37.654;2022-10-23T11:18:41;99092.63;;;5.01;75.99
50672;BME280;46021;55.882;37.654;2022-10-23T11:21:19;99093.44;;;5.03;75.67
50672;BME280;46021;55.882;37.654;2022-10-23T11:24:05;99086.56;;;5.02;76.28
50672;BME280;46021;55.882;37.654;2022-10-23T11:26:44;99072.84;;;5.00;75.77
50672;BME280;46021;55.882;37.654;2022-10-23T11:29:34;99073.72;;;4.99;75.88
50672;BME280;46021;55.882;37.654;2022-10-23T11:32:17;99074.56;;;5.01;76.48
50672;BME280;46021;55.882;37.654;2022-10-23T11:35:01;99080.59;;;5.00;76.88
50672;BME280;46021;55.882;37.654;2022-10-23T11:37:31;99066.72;;;5.04;75.78
50672;BME280;46021;55.882;37.654;2022-10-23T11:40:01;99076.25;;;5.02;76.59
50672;BME280;46021;55.882;37.654;2022-10-23T11:42:32;99067.63;;;5.03;77.32
50672;BME280;46021;55.882;37.654;2022-10-23T11:44:59;99058.94;;;5.06;76.75
50672;BME280;46021;55.882;37.654;2022-10-23T11:47:37;99060.69;;;5.05;77.10
50672;BME280;46021;55.882;37.654;2022-10-23T11:53:05;99052.25;;;4.97;76.92
50672;BME280;46021;55.882;37.654;2022-10-23T11:55:36;99045.41;;;4.93;77.70
50672;BME280;46021;55.882;37.654;2022-10-23T11:58:25;99050.72;;;4.87;78.24
50672;BME280;46021;55.882;37.654;2022-10-23T12:01:02;99056.84;;;4.81;77.80
50672;BME280;46021;55.882;37.654;2022-10-23T12:03:46;99053.56;;;4.73;78.97
50672;BME280;46021;55.882;37.654;2022-10-23T12:06:26;99052.75;;;4.69;79.00
50672;BME280;46021;55.882;37.654;2022-10-23T12:08:59;99050.19;;;4.68;78.36
50672;BME280;46021;55.882;37.654;2022-10-23T12:11:40;99041.59;;;4.69;78.83
50672;BME280;46021;55.882;37.654;2022-10-23T12:14:26;99051.03;;;4.68;79.29
50672;BME280;46021;55.882;37.654;2022-10-23T12:16:53;99045.84;;;4.72;78.29
50672;BME280;46021;55.882;37.654;2022-10-23T12:19:22;99050.00;;;4.80;78.49
50672;BME280;46021;55.882;37.654;2022-10-23T12:21:51;99047.31;;;4.85;78.14
50672;BME280;46021;55.882;37.654;2022-10-23T12:24:31;99046.34;;;4.91;78.77
50672;BME280;46021;55.882;37.654;2022-10-23T12:27:20;99043.03;;;4.84;78.32
50672;BME280;46021;55.882;37.654;2022-10-23T12:29:59;99044.06;;;4.74;78.52
50672;BME280;46021;55.882;37.654;2022-10-23T12:32:44;99030.34;;;4.72;79.06
50672;BME280;46021;55.882;37.654;2022-10-23T12:35:47;99036.31;;;4.75;78.43
50672;BME280;46021;55.882;37.654;2022-10-23T12:38:21;99044.88;;;4.77;78.68
50672;BME280;46021;55.882;37.654;2022-10-23T12:40:52;99050.88;;;4.78;79.38
50672;BME280;46021;55.882;37.654;2022-10-23T12:43:24;99044.88;;;4.76;79.25
50672;BME280;46021;55.882;37.654;2022-10-23T12:45:53;99036.25;;;4.78;79.13
50672;BME280;46021;55.882;37.654;2022-10-23T12:48:22;99027.72;;;4.75;79.53
50672;BME280;46021;55.882;37.654;2022-10-23T12:50:51;99029.50;;;4.71;78.75
50672;BME280;46021;55.882;37.654;2022-10-23T12:53:21;99024.34;;;4.71;79.50
50672;BME280;46021;55.882;37.654;2022-10-23T12:55:57;99025.19;;;4.70;80.20
50672;BME280;46021;55.882;37.654;2022-10-23T12:58:26;99011.50;;;4.66;79.51
50672;BME280;46021;55.882;37.654;2022-10-23T13:00:59;99016.63;;;4.69;79.99
50672;BME280;46021;55.882;37.654;2022-10-23T13:03:28;99015.72;;;4.71;79.31
50672;BME280;46021;55.882;37.654;2022-10-23T13:05:57;99008.09;;;4.64;79.61
50672;BME280;46021;55.882;37.654;2022-10-23T13:08:31;99009.03;;;4.60;80.64
50672;BME280;46021;55.882;37.654;2022-10-23T13:11:20;99006.47;;;4.60;80.65
50672;BME280;46021;55.882;37.654;2022-10-23T13:13:50;99010.75;;;4.61;80.90
50672;BME280;46021;55.882;37.654;2022-10-23T13:16:19;99003.00;;;4.61;80.27
50672;BME280;46021;55.882;37.654;2022-10-23T13:18:47;98995.28;;;4.60;79.83
50672;BME280;46021;55.882;37.654;2022-10-23T13:21:17;99009.00;;;4.62;81.11
50672;BME280;46021;55.882;37.654;2022-10-23T13:23:46;99000.31;;;4.67;81.24
50672;BME280;46021;55.882;37.654;2022-10-23T13:26:24;98988.38;;;4.60;80.92
50672;BME280;46021;55.882;37.654;2022-10-23T13:28:54;98996.94;;;4.64;80.77
50672;BME280;46021;55.882;37.654;2022-10-23T13:31:25;98990.03;;;4.64;80.31
50672;BME280;46021;55.882;37.654;2022-10-23T13:34:05;98984.00;;;4.65;80.44
50672;BME280;46021;55.882;37.654;2022-10-23T13:36:35;98986.59;;;4.64;80.43
50672;BME280;46021;55.882;37.654;2022-10-23T13:39:12;98989.19;;;4.62;81.55
50672;BME280;46021;55.882;37.654;2022-10-23T13:41:43;98986.66;;;4.61;80.91